Time;durP1;ratioP1;P1;durP2;ratioP2;P2;SDS_P1;SDS_P2;PMS_P1;PMS_P2;Temp;Humidity;BMP_temperature;BMP_pressure;BME280_temperature;BME280_humidity;BME280_pressure;Samples;Min_cycle;Max_cycle;Signal;HPM_P1;HPM_P2
2021/05/22 00:01:00;;;;;;;9.43;4.30;;;14.50;74.50;;;;;;5054106;28;20040;-69
2021/05/22 00:03:45;;;;;;;7.30;3.10;;;14.50;74.80;;;;;;5033882;28;20048;-69
2021/05/22 00:06:28;;;;;;;9.05;3.92;;;14.50;74.60;;;;;;5022355;28;20512;-69
2021/05/22 00:09:12;;;;;;;6.68;3.08;;;14.40;74.60;;;;;;5032288;28;20036;-69
2021/05/22 00:11:56;;;;;;;7.57;3.40;;;14.40;74.50;;;;;;5034312;28;20413;-69
2021/05/22 00:14:41;;;;;;;8.83;5.00;;;14.40;74.50;;;;;;5014777;28;20049;-70
2021/05/22 00:17:24;;;;;;;7.53;3.35;;;14.40;74.50;;;;;;5021773;28;20120;-69
2021/05/22 00:20:09;;;;;;;13.77;3.83;;;14.30;74.30;;;;;;5034373;28;20035;-69
2021/05/22 00:22:53;;;;;;;9.43;5.57;;;14.30;74.10;;;;;;5034484;28;20035;-70
2021/05/22 00:25:37;;;;;;;10.30;3.63;;;14.30;74.20;;;;;;5028920;28;20032;-69
2021/05/22 00:28:21;;;;;;;11.65;3.78;;;14.20;73.80;;;;;;5028051;28;20060;-69
2021/05/22 00:31:05;;;;;;;7.75;3.42;;;14.20;73.90;;;;;;5034182;28;20041;-69
2021/05/22 00:33:49;;;;;;;7.17;3.83;;;14.20;73.80;;;;;;5015561;28;20072;-69
2021/05/22 00:36:33;;;;;;;7.20;3.00;;;14.10;73.90;;;;;;5016822;28;20110;-70
2021/05/22 00:39:17;;;;;;;10.40;3.42;;;14.10;74.00;;;;;;5033414;28;20044;-69
2021/05/22 00:42:04;;;;;;;6.18;2.65;;;14.00;73.70;;;;;;5037421;28;20090;-70
2021/05/22 00:45:09;;;;;;;6.50;2.63;;;14.00;73.70;;;;;;5012983;28;20036;-68
2021/05/22 00:47:56;;;;;;;5.32;2.58;;;14.00;73.50;;;;;;5028582;28;20086;-70
2021/05/22 00:50:43;;;;;;;6.80;2.53;;;14.00;73.50;;;;;;5033528;28;20463;-70
2021/05/22 00:53:27;;;;;;;5.78;2.45;;;14.00;73.20;;;;;;5029874;28;20039;-70
2021/05/22 00:56:11;;;;;;;10.43;3.22;;;14.00;73.20;;;;;;5033791;28;20064;-70
2021/05/22 00:58:55;;;;;;;6.22;2.75;;;14.00;73.30;;;;;;5028382;28;20059;-71
2021/05/22 01:01:39;;;;;;;10.52;5.18;;;13.90;73.10;;;;;;5039368;28;20056;-71
2021/05/22 01:04:19;;;;;;;6.97;3.15;;;13.90;73.00;;;;;;5016172;28;20040;-71
2021/05/22 01:07:03;;;;;;;15.23;7.72;;;13.90;72.90;;;;;;5030835;28;20040;-70
2021/05/22 01:09:51;;;;;;;11.25;6.00;;;13.90;73.10;;;;;;5020078;28;20036;-70
2021/05/22 01:12:41;;;;;;;8.20;3.90;;;13.90;73.00;;;;;;5030390;28;20087;-70
2021/05/22 01:15:26;;;;;;;7.13;2.92;;;13.80;73.00;;;;;;5016914;28;20036;-70
2021/05/22 01:18:11;;;;;;;7.05;2.78;;;13.80;72.60;;;;;;5033000;28;20111;-70
2021/05/22 01:20:57;;;;;;;;;;;13.80;72.50;;;;;;5029202;28;20323;-69
2021/05/22 01:23:46;;;;;;;7.43;3.08;;;13.80;72.40;;;;;;5052795;28;20423;-69
2021/05/22 01:26:31;;;;;;;8.07;2.50;;;13.80;72.70;;;;;;5043792;28;20120;-75
2021/05/22 01:29:15;;;;;;;;;;;13.80;72.60;;;;;;5053493;28;20125;-71
2021/05/22 01:32:00;;;;;;;7.22;2.50;;;13.80;72.40;;;;;;5044712;28;19954;-72
2021/05/22 01:34:45;;;;;;;6.93;2.60;;;13.80;72.50;;;;;;5048417;28;20079;-71
2021/05/22 01:37:30;;;;;;;7.43;2.15;;;13.70;72.80;;;;;;5048055;28;20090;-72
2021/05/22 01:40:14;;;;;;;5.53;1.90;;;13.80;72.90;;;;;;5048104;28;20049;-71
2021/05/22 01:42:58;;;;;;;7.05;2.42;;;13.70;72.70;;;;;;5013181;28;20088;-71
2021/05/22 01:45:45;;;;;;;4.47;2.50;;;13.70;72.70;;;;;;5020872;28;20392;-70
2021/05/22 01:48:29;;;;;;;8.45;2.03;;;13.70;73.00;;;;;;5032886;28;20414;-71
2021/05/22 01:51:16;;;;;;;5.90;1.98;;;13.70;72.70;;;;;;5031887;28;20040;-70
2021/05/22 01:54:01;;;;;;;4.57;2.05;;;13.70;72.70;;;;;;5032500;28;20043;-70
2021/05/22 01:56:46;;;;;;;;;;;13.70;72.70;;;;;;5026988;28;20041;-70
2021/05/22 01:59:30;;;;;;;5.38;2.00;;;13.70;72.40;;;;;;5035795;28;20296;-71
2021/05/22 02:02:14;;;;;;;4.22;2.17;;;13.70;72.70;;;;;;5028865;28;20057;-70
2021/05/22 02:05:01;;;;;;;4.10;1.88;;;13.60;72.90;;;;;;5036801;28;20039;-69
2021/05/22 02:07:48;;;;;;;3.97;1.98;;;13.60;73.10;;;;;;5012456;28;20048;-69
2021/05/22 02:10:33;;;;;;;5.78;2.20;;;13.70;73.30;;;;;;5027429;28;20413;-69
2021/05/22 02:13:19;;;;;;;6.20;2.42;;;13.70;73.50;;;;;;5032610;28;20488;-70
2021/05/22 02:16:04;;;;;;;;;;;13.70;73.60;;;;;;5030509;28;20087;-69
2021/05/22 02:18:49;;;;;;;5.85;1.98;;;13.70;73.20;;;;;;5031950;28;19912;-69
2021/05/22 02:21:35;;;;;;;6.80;2.35;;;13.70;73.50;;;;;;5024602;28;20119;-68
2021/05/22 02:24:24;;;;;;;6.30;2.05;;;13.70;73.80;;;;;;5035239;28;20108;-67
2021/05/22 02:27:10;;;;;;;4.95;2.28;;;13.60;74.00;;;;;;5013596;28;20131;-68
2021/05/22 02:29:54;;;;;;;5.22;2.30;;;13.70;74.30;;;;;;5030674;28;20051;-67
2021/05/22 02:32:41;;;;;;;5.45;2.50;;;13.60;74.40;;;;;;5021717;28;20032;-67
2021/05/22 02:35:26;;;;;;;5.13;2.35;;;13.70;74.70;;;;;;5039739;28;20037;-68
2021/05/22 02:38:18;;;;;;;;;;;13.60;74.80;;;;;;5032437;28;20048;-68
2021/05/22 02:41:07;;;;;;;6.88;2.40;;;13.70;74.30;;;;;;5030657;28;19951;-67
2021/05/22 02:43:53;;;;;;;5.30;2.58;;;13.60;74.80;;;;;;5032570;28;20079;-67
2021/05/22 02:46:45;;;;;;;5.70;2.25;;;13.70;75.20;;;;;;5016792;28;20413;-67
2021/05/22 02:49:30;;;;;;;6.60;2.50;;;13.70;75.50;;;;;;5021244;28;20028;-67
2021/05/22 02:52:17;;;;;;;5.38;2.20;;;13.70;75.60;;;;;;5012740;28;20045;-67
2021/05/22 02:55:04;;;;;;;4.82;2.42;;;13.60;75.80;;;;;;5035234;28;20067;-68
2021/05/22 02:57:50;;;;;;;8.18;2.38;;;13.70;76.10;;;;;;5011842;28;20045;-66
2021/05/22 03:00:34;;;;;;;4.65;2.17;;;13.60;76.20;;;;;;5027628;28;20074;-66
2021/05/22 03:03:21;;;;;;;6.43;2.50;;;13.60;76.40;;;;;;5022664;28;20096;-67
2021/05/22 03:06:05;;;;;;;7.90;2.10;;;13.70;76.60;;;;;;5040010;28;20059;-67
2021/05/22 03:08:50;;;;;;;5.68;2.30;;;13.60;76.70;;;;;;5035492;28;20623;-67
2021/05/22 03:11:35;;;;;;;4.65;2.00;;;13.70;77.00;;;;;;5036153;28;20521;-68
2021/05/22 03:14:19;;;;;;;9.23;2.55;;;13.60;77.10;;;;;;5030931;28;20115;-67
2021/05/22 03:17:03;;;;;;;5.97;2.45;;;13.60;77.30;;;;;;5029713;28;20120;-67
2021/05/22 03:19:47;;;;;;;5.60;2.30;;;13.60;77.50;;;;;;5045549;28;20055;-68
2021/05/22 03:22:31;;;;;;;4.45;2.10;;;13.70;77.70;;;;;;5011722;28;20458;-67
2021/05/22 03:25:15;;;;;;;8.63;2.58;;;13.70;77.90;;;;;;5044421;28;20412;-67
2021/05/22 03:27:59;;;;;;;4.22;2.05;;;13.70;78.00;;;;;;5034213;28;20423;-67
2021/05/22 03:30:43;;;;;;;5.03;2.45;;;13.70;78.30;;;;;;5037615;28;20036;-67
2021/05/22 03:33:27;;;;;;;7.25;2.42;;;13.70;78.50;;;;;;5036764;28;20534;-67
2021/05/22 03:36:12;;;;;;;7.17;2.70;;;13.70;78.60;;;;;;5039019;28;20044;-68
2021/05/22 03:38:56;;;;;;;4.10;1.80;;;13.70;78.80;;;;;;5032433;28;20188;-67
2021/05/22 03:41:40;;;;;;;4.45;1.95;;;13.70;79.10;;;;;;5029147;28;20071;-67
2021/05/22 03:44:24;;;;;;;5.97;2.13;;;13.70;79.40;;;;;;5045400;28;20075;-68
2021/05/22 03:47:09;;;;;;;4.32;2.00;;;13.70;79.70;;;;;;5032727;28;20508;-68
2021/05/22 03:49:53;;;;;;;6.40;2.17;;;13.80;80.00;;;;;;5014605;28;20579;-67
2021/05/22 03:52:37;;;;;;;5.55;2.63;;;13.80;80.20;;;;;;5018130;28;20052;-68
2021/05/22 03:55:22;;;;;;;4.40;2.00;;;13.90;80.40;;;;;;5046731;28;20052;-68
2021/05/22 03:58:07;;;;;;;3.83;2.13;;;13.90;80.50;;;;;;5031694;28;20074;-68
2021/05/22 04:00:51;;;;;;;5.07;1.98;;;14.00;80.70;;;;;;5029533;28;20477;-68
2021/05/22 04:03:35;;;;;;;6.00;2.65;;;14.00;80.80;;;;;;5034652;28;20576;-68
2021/05/22 04:06:19;;;;;;;4.80;2.47;;;14.00;81.00;;;;;;5032595;28;20044;-68
2021/05/22 04:09:04;;;;;;;4.80;2.10;;;14.10;81.30;;;;;;5049492;28;20389;-68
2021/05/22 04:11:48;;;;;;;5.03;2.10;;;14.10;81.30;;;;;;5036257;28;20037;-68
2021/05/22 04:14:32;;;;;;;6.10;2.65;;;14.10;81.50;;;;;;5033205;28;20099;-67
2021/05/22 04:17:16;;;;;;;4.70;2.40;;;14.20;82.20;;;;;;5034707;28;20166;-68
2021/05/22 04:20:00;;;;;;;5.63;2.40;;;14.20;81.90;;;;;;5051171;28;20078;-68
2021/05/22 04:22:44;;;;;;;4.72;2.50;;;14.20;82.10;;;;;;5028261;28;20051;-68
2021/05/22 04:25:28;;;;;;;6.50;2.17;;;14.30;82.20;;;;;;5046371;28;20029;-68
2021/05/22 04:28:12;;;;;;;3.35;1.83;;;14.30;82.20;;;;;;5034785;28;20045;-68
2021/05/22 04:30:56;;;;;;;4.00;2.20;;;14.30;82.00;;;;;;5021062;28;20401;-68
2021/05/22 04:33:40;;;;;;;5.88;2.40;;;14.40;82.20;;;;;;5050187;28;20044;-68
2021/05/22 04:36:24;;;;;;;5.05;2.35;;;14.40;82.20;;;;;;5028315;28;20057;-69
2021/05/22 04:39:08;;;;;;;5.47;1.95;;;14.50;82.40;;;;;;5014307;28;20076;-68
2021/05/22 04:41:52;;;;;;;4.57;2.03;;;14.50;82.40;;;;;;5030506;28;20115;-68
2021/05/22 04:44:36;;;;;;;4.68;1.92;;;14.50;82.40;;;;;;5033693;28;20041;-68
2021/05/22 04:47:20;;;;;;;3.35;2.20;;;14.60;82.80;;;;;;5013789;28;20513;-67
2021/05/22 04:50:07;;;;;;;3.53;1.70;;;14.70;83.10;;;;;;5014653;28;20025;-68
2021/05/22 04:52:51;;;;;;;4.63;1.70;;;14.80;83.30;;;;;;5024561;28;20049;-68
2021/05/22 04:55:37;;;;;;;3.88;1.92;;;14.80;83.40;;;;;;5016100;28;20052;-68
2021/05/22 04:58:21;;;;;;;;;;;14.90;83.10;;;;;;5034322;28;20121;-68
2021/05/22 05:01:05;;;;;;;4.72;2.20;;;15.00;82.80;;;;;;5029684;28;20499;-68
2021/05/22 05:03:49;;;;;;;2.83;1.98;;;15.00;83.10;;;;;;5033644;28;20064;-67
2021/05/22 05:06:33;;;;;;;5.18;2.10;;;15.10;83.30;;;;;;5032256;28;20044;-67
2021/05/22 05:09:17;;;;;;;3.53;1.98;;;15.10;82.90;;;;;;5026977;28;20095;-68
2021/05/22 05:12:06;;;;;;;4.75;2.05;;;15.20;82.70;;;;;;5032304;28;20452;-68
2021/05/22 05:14:50;;;;;;;4.43;2.17;;;15.30;82.90;;;;;;5033648;28;20055;-68
2021/05/22 05:17:34;;;;;;;4.55;2.10;;;15.30;83.20;;;;;;5026757;28;20539;-68
2021/05/22 05:20:18;;;;;;;3.85;2.10;;;15.40;83.10;;;;;;5031461;28;20037;-67
2021/05/22 05:23:02;;;;;;;4.47;2.77;;;15.50;82.90;;;;;;5033121;28;20447;-68
2021/05/22 05:25:47;;;;;;;3.47;2.13;;;15.60;83.20;;;;;;5031587;28;20512;-68
2021/05/22 05:28:31;;;;;;;5.40;2.08;;;15.80;83.10;;;;;;5031955;28;20045;-68
2021/05/22 05:31:15;;;;;;;2.72;1.65;;;15.90;82.50;;;;;;5023456;28;20091;-68
2021/05/22 05:33:59;;;;;;;2.17;1.63;;;16.10;82.40;;;;;;5031292;28;20051;-68
2021/05/22 05:36:43;;;;;;;2.70;1.80;;;16.20;81.50;;;;;;5036831;28;20472;-68
2021/05/22 05:39:28;;;;;;;2.60;1.58;;;16.20;80.70;;;;;;5036425;28;20091;-68
2021/05/22 05:42:12;;;;;;;3.13;1.80;;;16.30;80.00;;;;;;5031320;28;20516;-68
2021/05/22 05:44:56;;;;;;;3.58;1.80;;;16.30;79.70;;;;;;5013499;28;20110;-68
2021/05/22 05:47:40;;;;;;;2.80;1.80;;;16.30;79.80;;;;;;5012574;28;20458;-68
2021/05/22 05:50:24;;;;;;;3.90;1.98;;;16.30;79.60;;;;;;5023341;28;20051;-68
2021/05/22 05:53:08;;;;;;;4.55;1.80;;;16.30;79.40;;;;;;5036882;28;20078;-68
2021/05/22 05:55:52;;;;;;;3.78;2.00;;;16.20;79.90;;;;;;5042780;28;20036;-69
2021/05/22 05:58:36;;;;;;;5.05;1.90;;;16.10;80.90;;;;;;5031671;28;20044;-70
2021/05/22 06:01:21;;;;;;;2.80;1.73;;;16.00;82.20;;;;;;5026180;28;20049;-70
2021/05/22 06:04:05;;;;;;;4.27;2.30;;;15.90;83.10;;;;;;5037015;28;20064;-68
2021/05/22 06:06:50;;;;;;;3.38;1.77;;;15.80;84.00;;;;;;5039209;28;20067;-67
2021/05/22 06:09:34;;;;;;;4.10;1.63;;;15.80;84.90;;;;;;5016976;28;20092;-68
2021/05/22 06:12:18;;;;;;;4.15;2.20;;;15.70;86.00;;;;;;5025834;28;20060;-69
2021/05/22 06:15:22;;;;;;;6.97;1.98;;;15.70;86.60;;;;;;5025767;28;20037;-70
2021/05/22 06:18:06;;;;;;;4.30;1.83;;;15.70;86.90;;;;;;5025624;28;20044;-69
2021/05/22 06:20:50;;;;;;;5.67;1.93;;;15.70;87.70;;;;;;5027386;28;20045;-69
2021/05/22 06:23:35;;;;;;;6.82;2.03;;;15.70;87.40;;;;;;5012366;28;20033;-70
2021/05/22 06:26:19;;;;;;;;;;;15.80;87.90;;;;;;5027540;28;20045;-69
2021/05/22 06:29:04;;;;;;;4.15;2.00;;;15.80;87.40;;;;;;5013678;28;19916;-69
2021/05/22 06:31:48;;;;;;;5.77;2.20;;;15.80;88.20;;;;;;5019868;28;20087;-69
2021/05/22 06:34:32;;;;;;;5.40;2.03;;;15.80;88.60;;;;;;5012378;28;20037;-69
2021/05/22 06:37:16;;;;;;;3.60;1.98;;;15.80;88.80;;;;;;5016092;28;20091;-69
2021/05/22 06:40:00;;;;;;;3.13;2.00;;;15.90;89.00;;;;;;5028777;28;20087;-71
2021/05/22 06:42:44;;;;;;;4.53;2.03;;;15.90;89.10;;;;;;5011963;28;20279;-69
2021/05/22 06:45:38;;;;;;;6.05;2.28;;;16.00;89.60;;;;;;5016116;28;20036;-69
2021/05/22 06:48:22;;;;;;;4.97;2.35;;;16.00;90.00;;;;;;5031421;28;20049;-72
2021/05/22 06:51:07;;;;;;;2.40;1.80;;;16.20;90.00;;;;;;5025192;28;20044;-70
2021/05/22 06:53:51;;;;;;;6.03;2.30;;;16.30;90.00;;;;;;5014978;28;20068;-70
2021/05/22 06:56:35;;;;;;;4.00;1.90;;;16.50;90.00;;;;;;5009542;28;20076;-70
2021/05/22 06:59:19;;;;;;;3.80;1.85;;;16.70;89.70;;;;;;5031917;28;20096;-70
2021/05/22 07:02:03;;;;;;;4.53;1.92;;;16.80;88.90;;;;;;5015421;28;20429;-70
2021/05/22 07:04:47;;;;;;;4.47;2.17;;;17.00;88.30;;;;;;5026513;28;20033;-70
2021/05/22 07:07:32;;;;;;;3.55;1.73;;;17.10;88.20;;;;;;5022718;28;20127;-70
2021/05/22 07:10:16;;;;;;;;;;;17.20;87.70;;;;;;5020341;28;20045;-70
2021/05/22 07:13:00;;;;;;;2.60;1.67;;;17.30;87.60;;;;;;5031501;28;20494;-70
2021/05/22 07:15:44;;;;;;;1.98;1.27;;;17.40;86.70;;;;;;5023847;28;20096;-70
2021/05/22 07:18:28;;;;;;;3.60;1.42;;;17.50;86.50;;;;;;5029720;28;20079;-70
2021/05/22 07:21:12;;;;;;;18.80;2.00;;;17.60;85.60;;;;;;5032979;28;20567;-70
2021/05/22 07:23:56;;;;;;;3.50;2.07;;;17.70;84.80;;;;;;5032678;28;20513;-71
2021/05/22 07:26:40;;;;;;;3.20;1.73;;;17.80;83.70;;;;;;5031432;28;20048;-70
2021/05/22 07:29:25;;;;;;;2.97;1.65;;;17.80;83.00;;;;;;5034944;28;20504;-70
2021/05/22 07:32:09;;;;;;;3.45;1.50;;;17.90;83.30;;;;;;5031502;28;20044;-71
2021/05/22 07:34:53;;;;;;;3.78;1.75;;;17.90;82.60;;;;;;5029171;28;20045;-71
2021/05/22 07:37:38;;;;;;;3.00;1.50;;;18.00;80.80;;;;;;5020551;28;20096;-72
2021/05/22 07:40:21;;;;;;;3.17;1.60;;;18.10;80.30;;;;;;5021795;28;20032;-73
2021/05/22 07:43:05;;;;;;;4.05;1.80;;;18.10;79.80;;;;;;5027752;28;20340;-69
2021/05/22 07:45:53;;;;;;;3.85;1.50;;;18.10;79.30;;;;;;5027471;28;20604;-69
2021/05/22 07:48:37;;;;;;;3.10;1.80;;;18.10;79.10;;;;;;5018655;28;20053;-68
2021/05/22 07:51:22;;;;;;;4.75;1.35;;;18.10;78.10;;;;;;5028632;28;20040;-68
2021/05/22 07:54:06;;;;;;;3.23;1.40;;;18.20;76.70;;;;;;5017927;28;20052;-69
2021/05/22 07:56:50;;;;;;;3.80;1.40;;;18.30;76.20;;;;;;5030912;28;20045;-69
2021/05/22 07:59:35;;;;;;;3.30;1.40;;;18.30;75.10;;;;;;5025480;28;20559;-69
2021/05/22 08:02:19;;;;;;;4.10;1.52;;;18.30;74.90;;;;;;5031828;28;20544;-69
2021/05/22 08:05:05;;;;;;;4.78;1.55;;;18.40;74.60;;;;;;5021278;28;20060;-69
2021/05/22 08:07:50;;;;;;;11.40;1.75;;;18.40;74.50;;;;;;5031174;28;20060;-69
2021/05/22 08:10:34;;;;;;;2.22;1.20;;;18.50;74.00;;;;;;5032003;28;20136;-69
2021/05/22 08:13:18;;;;;;;3.03;1.10;;;18.50;73.50;;;;;;5025558;28;20040;-69
2021/05/22 08:16:02;;;;;;;4.10;1.40;;;18.50;72.70;;;;;;5022547;28;20335;-69
2021/05/22 08:18:46;;;;;;;3.15;1.20;;;18.50;71.40;;;;;;5031020;28;20103;-69
2021/05/22 08:21:30;;;;;;;2.83;1.42;;;18.40;70.30;;;;;;5031662;28;20049;-70
2021/05/22 08:24:14;;;;;;;3.15;1.48;;;18.40;70.30;;;;;;5030015;28;20044;-68
2021/05/22 08:26:58;;;;;;;5.18;1.75;;;18.50;69.50;;;;;;5022086;28;20398;-68
2021/05/22 08:29:42;;;;;;;3.30;1.30;;;18.40;68.10;;;;;;5028346;28;20036;-68
2021/05/22 08:32:26;;;;;;;3.40;1.30;;;18.40;67.00;;;;;;5032934;28;20524;-66
2021/05/22 08:35:11;;;;;;;8.30;2.03;;;18.50;67.20;;;;;;5022764;28;20386;-68
2021/05/22 08:37:56;;;;;;;2.78;1.42;;;18.50;66.80;;;;;;5027636;28;20048;-68
2021/05/22 08:40:41;;;;;;;3.30;1.30;;;18.50;65.90;;;;;;5024007;28;20032;-68
2021/05/22 08:43:25;;;;;;;4.57;1.40;;;18.50;65.10;;;;;;5025211;28;20441;-68
2021/05/22 08:45:50;;;;;;;3.78;1.55;;;18.40;63.90;;;;;;5023160;28;20037;-68
2021/05/22 08:48:36;;;;;;;4.65;1.58;;;18.40;63.30;;;;;;5029402;28;20091;-68
2021/05/22 08:51:21;;;;;;;3.42;1.77;;;18.40;62.70;;;;;;5029854;28;20033;-68
2021/05/22 08:54:05;;;;;;;2.47;1.15;;;18.30;61.80;;;;;;5032527;28;20036;-68
2021/05/22 08:56:49;;;;;;;5.75;1.50;;;18.30;61.40;;;;;;5030891;28;20048;-68
2021/05/22 08:59:39;;;;;;;4.68;1.40;;;18.30;61.60;;;;;;5030583;28;20034;-68
2021/05/22 09:02:25;;;;;;;4.95;1.65;;;18.30;62.20;;;;;;5013655;28;20563;-68
2021/05/22 09:05:27;;;;;;;2.33;1.23;;;18.40;61.00;;;;;;5020869;28;20110;-68
2021/05/22 09:08:15;;;;;;;5.38;1.40;;;18.50;61.70;;;;;;5018859;28;20044;-68
2021/05/22 09:11:04;;;;;;;7.68;1.60;;;18.50;61.50;;;;;;5018519;28;20039;-68
2021/05/22 09:13:51;;;;;;;6.30;1.67;;;18.70;60.90;;;;;;5032176;28;20044;-68
2021/05/22 09:16:35;;;;;;;4.00;1.27;;;18.80;60.50;;;;;;5027466;28;20036;-68
2021/05/22 09:19:27;;;;;;;8.43;1.95;;;18.90;59.50;;;;;;5031499;28;20023;-68
2021/05/22 09:22:14;;;;;;;3.22;1.10;;;18.90;59.40;;;;;;5029529;28;20547;-68
2021/05/22 09:25:00;;;;;;;4.10;1.55;;;19.00;59.10;;;;;;5027903;28;20432;-68
2021/05/22 09:27:44;;;;;;;5.85;1.50;;;19.00;59.80;;;;;;5012649;28;20052;-68
2021/05/22 09:30:30;;;;;;;3.07;1.30;;;19.10;58.60;;;;;;5021643;28;20040;-69
2021/05/22 09:33:19;;;;;;;4.13;1.40;;;19.20;57.80;;;;;;5012408;28;20517;-69
2021/05/22 09:36:00;;;;;;;5.15;1.30;;;19.20;57.00;;;;;;5015593;28;20315;-68
2021/05/22 09:38:53;;;;;;;3.45;1.23;;;19.20;56.70;;;;;;5026408;28;20071;-69
2021/05/22 09:41:37;;;;;;;4.95;1.10;;;19.40;55.30;;;;;;5028684;28;20402;-69
2021/05/22 09:44:25;;;;;;;5.10;1.45;;;19.50;55.50;;;;;;5031283;28;20460;-69
2021/05/22 09:47:10;;;;;;;4.53;1.50;;;19.60;54.60;;;;;;5022997;28;20052;-69
2021/05/22 09:49:54;;;;;;;3.83;1.30;;;19.60;53.90;;;;;;5050320;28;20032;-69
2021/05/22 09:52:38;;;;;;;3.92;1.45;;;19.70;54.60;;;;;;5025387;28;20121;-68
2021/05/22 09:55:04;;;;;;;4.65;1.45;;;19.80;54.20;;;;;;5031112;28;20116;-68
2021/05/22 09:57:51;;;;;;;8.50;1.80;;;19.90;53.10;;;;;;5028508;28;20037;-68
2021/05/22 10:00:24;;;;;;;3.58;1.58;;;20.00;52.40;;;;;;5017986;28;20025;-68
2021/05/22 10:02:58;;;;;;;4.63;1.50;;;20.00;52.20;;;;;;5027809;28;20140;-68
2021/05/22 10:05:48;;;;;;;3.75;1.60;;;20.00;52.10;;;;;;5042938;28;20499;-71
2021/05/22 10:08:32;;;;;;;6.32;1.42;;;20.00;52.00;;;;;;5022864;28;20056;-70
2021/05/22 10:11:16;;;;;;;2.47;1.17;;;20.10;52.00;;;;;;5018013;28;20033;-70
2021/05/22 10:14:00;;;;;;;5.03;1.88;;;20.10;51.40;;;;;;5018680;28;20153;-69
2021/05/22 10:16:26;;;;;;;5.25;1.60;;;20.20;51.70;;;;;;5020251;28;20105;-67
2021/05/22 10:18:51;;;;;;;4.25;1.10;;;20.30;50.80;;;;;;5026741;28;20116;-69
2021/05/22 10:21:17;;;;;;;4.13;1.20;;;20.40;50.00;;;;;;5020497;28;20044;-69
2021/05/22 10:24:01;;;;;;;4.35;1.30;;;20.40;49.50;;;;;;5026753;28;20048;-69
2021/05/22 10:26:45;;;;;;;4.40;1.70;;;20.40;49.60;;;;;;5031438;28;20090;-70
2021/05/22 10:29:31;;;;;;;4.27;1.60;;;20.40;48.90;;;;;;5019022;28;20032;-70
2021/05/22 10:31:56;;;;;;;5.57;1.63;;;20.30;48.60;;;;;;5023164;28;20295;-70
2021/05/22 10:34:24;;;;;;;4.38;1.30;;;20.20;48.60;;;;;;5031154;28;20484;-69
2021/05/22 10:36:55;;;;;;;2.20;1.10;;;20.10;48.80;;;;;;5023520;28;20032;-69
2021/05/22 10:39:40;;;;;;;4.45;1.20;;;20.10;49.30;;;;;;5026289;28;20347;-70
2021/05/22 10:42:26;;;;;;;5.25;1.60;;;19.90;50.00;;;;;;5020871;28;20034;-71
2021/05/22 10:44:52;;;;;;;2.95;1.50;;;19.80;51.60;;;;;;5017905;28;20064;-71
2021/05/22 10:47:19;;;;;;;4.63;1.70;;;19.70;52.00;;;;;;5023469;28;20037;-71
2021/05/22 10:50:05;;;;;;;4.60;1.88;;;19.60;52.50;;;;;;5026507;28;20103;-71
2021/05/22 10:53:18;;;;;;;4.93;1.50;;;19.40;54.20;;;;;;5029692;28;20398;-71
2021/05/22 10:56:07;;;;;;;2.90;1.40;;;19.20;55.40;;;;;;5016236;28;20095;-71
2021/05/22 10:58:57;;;;;;;5.07;1.10;;;19.00;56.30;;;;;;5025623;28;20258;-69
2021/05/22 11:01:44;;;;;;;4.07;1.30;;;19.00;56.90;;;;;;5020962;28;20338;-70
2021/05/22 11:06:49;;;;;;;4.95;1.30;;;18.90;57.40;;;;;;5024584;28;20041;-71
2021/05/22 11:12:00;;;;;;;8.18;2.70;;;18.80;57.80;;;;;;5026193;28;20033;-71
2021/05/22 11:14:34;;;;;;;4.65;2.10;;;18.80;57.30;;;;;;5027467;28;20034;-71
2021/05/22 11:17:00;;;;;;;6.00;2.47;;;18.80;57.70;;;;;;5023773;28;20122;-71
2021/05/22 11:19:26;;;;;;;4.22;1.75;;;18.90;57.40;;;;;;5018565;28;20466;-71
2021/05/22 11:22:14;;;;;;;6.65;2.58;;;19.00;57.20;;;;;;5026067;28;20164;-71
2021/05/22 11:25:06;;;;;;;11.40;4.38;;;19.00;57.30;;;;;;5022530;28;20111;-71
2021/05/22 11:28:01;;;;;;;5.35;2.28;;;19.00;56.60;;;;;;5014462;28;20552;-71
2021/05/22 11:30:49;;;;;;;6.30;2.63;;;19.00;55.50;;;;;;5028778;28;20183;-70
2021/05/22 11:33:33;;;;;;;3.38;1.30;;;19.00;53.60;;;;;;5012087;28;20045;-71
2021/05/22 11:36:17;;;;;;;4.18;1.35;;;19.00;52.10;;;;;;5024157;28;20036;-70
2021/05/22 11:39:41;;;;;;;2.95;1.48;;;18.90;51.70;;;;;;5018602;28;20084;-71
2021/05/22 11:42:38;;;;;;;6.85;1.67;;;18.90;51.70;;;;;;5029714;28;20548;-70
2021/05/22 11:45:22;;;;;;;4.75;1.30;;;18.90;52.80;;;;;;5021536;28;20079;-70
2021/05/22 11:48:34;;;;;;;3.23;1.40;;;19.00;53.70;;;;;;5036613;28;20082;-70
2021/05/22 11:51:10;;;;;;;6.30;2.13;;;19.00;54.50;;;;;;5021194;28;20035;-70
2021/05/22 11:53:38;;;;;;;5.78;1.90;;;19.10;54.70;;;;;;5019552;28;20577;-69
2021/05/22 11:56:05;;;;;;;5.35;1.80;;;19.00;54.50;;;;;;5019927;28;20045;-69
2021/05/22 11:58:31;;;;;;;4.30;1.58;;;19.00;54.80;;;;;;5025165;28;20021;-68
2021/05/22 12:01:15;;;;;;;5.97;2.13;;;19.00;55.80;;;;;;5028217;28;20109;-67
2021/05/22 12:03:42;;;;;;;3.95;1.88;;;19.00;55.60;;;;;;5024097;28;20033;-71
2021/05/22 12:06:31;;;;;;;5.18;1.40;;;19.10;54.20;;;;;;5030782;28;20168;-71
2021/05/22 12:09:25;;;;;;;4.22;1.40;;;19.10;53.40;;;;;;5033249;28;20098;-72
2021/05/22 12:12:11;;;;;;;5.63;2.17;;;19.10;53.00;;;;;;5023464;28;20096;-71
2021/05/22 12:14:46;;;;;;;5.75;1.98;;;19.10;52.00;;;;;;5021252;28;20397;-71
2021/05/22 12:17:14;;;;;;;5.30;2.20;;;19.10;51.60;;;;;;5030772;28;20105;-71
2021/05/22 12:19:42;;;;;;;7.43;3.05;;;19.20;52.20;;;;;;5024424;28;20375;-71
2021/05/22 12:22:07;;;;;;;4.65;1.83;;;19.40;51.40;;;;;;5029830;28;20053;-70
2021/05/22 12:24:54;;;;;;;6.05;1.48;;;19.60;51.10;;;;;;5026615;28;20117;-69
2021/05/22 12:27:39;;;;;;;6.00;1.85;;;19.70;50.80;;;;;;5028131;28;20051;-72
2021/05/22 12:30:25;;;;;;;6.90;2.00;;;19.80;50.40;;;;;;5020180;28;20394;-71
2021/05/22 12:33:10;;;;;;;1.75;1.10;;;20.00;50.00;;;;;;5025034;28;20044;-71
2021/05/22 12:36:09;;;;;;;6.20;1.88;;;20.10;49.40;;;;;;5032986;28;20048;-71
2021/05/22 12:38:54;;;;;;;3.63;1.65;;;20.10;49.00;;;;;;5026131;28;20124;-68
2021/05/22 12:41:39;;;;;;;4.95;1.90;;;20.10;48.30;;;;;;5031415;28;20040;-68
2021/05/22 12:44:23;;;;;;;;;;;20.10;48.30;;;;;;5027181;28;20048;-69
2021/05/22 12:47:08;;;;;;;5.75;1.85;;;20.10;48.20;;;;;;5014218;28;19984;-69
2021/05/22 12:50:02;;;;;;;5.05;2.42;;;20.10;48.10;;;;;;5019811;28;20080;-70
2021/05/22 12:52:28;;;;;;;5.53;1.67;;;20.00;48.50;;;;;;5017423;28;20041;-69
2021/05/22 12:55:32;;;;;;;3.00;1.67;;;20.00;48.50;;;;;;5011932;28;20049;-68
2021/05/22 12:58:21;;;;;;;3.35;1.50;;;20.10;48.70;;;;;;5020002;28;20048;-69
2021/05/22 13:01:19;;;;;;;2.65;1.52;;;20.00;48.30;;;;;;5022088;28;20032;-69
2021/05/22 13:04:24;;;;;;;4.57;1.33;;;20.10;48.50;;;;;;5033258;28;20048;-67
2021/05/22 13:07:08;;;;;;;5.60;1.60;;;20.10;47.90;;;;;;5024672;28;20091;-69
2021/05/22 13:09:54;;;;;;;4.30;1.73;;;20.30;48.10;;;;;;5014890;28;20045;-69
2021/05/22 13:12:54;;;;;;;2.03;1.00;;;20.40;47.90;;;;;;5021587;28;20378;-68
2021/05/22 13:15:49;;;;;;;6.60;1.55;;;20.50;47.80;;;;;;5028182;28;20082;-69
2021/05/22 13:18:35;;;;;;;2.58;1.33;;;20.70;47.50;;;;;;5038873;28;20061;-69
2021/05/22 13:21:19;;;;;;;2.80;1.40;;;20.80;47.40;;;;;;5021776;28;20072;-69
2021/05/22 13:24:10;;;;;;;3.53;1.27;;;20.80;46.80;;;;;;5029803;28;20562;-69
2021/05/22 13:27:07;;;;;;;2.40;1.13;;;20.80;46.70;;;;;;5024457;28;20044;-68
2021/05/22 13:29:57;;;;;;;7.15;0.88;;;20.70;46.80;;;;;;5020398;28;20121;-68
2021/05/22 13:32:45;;;;;;;3.97;1.48;;;20.60;46.90;;;;;;5012365;28;20246;-68
2021/05/22 13:35:30;;;;;;;2.13;1.17;;;20.50;47.70;;;;;;5024557;28;20029;-69
2021/05/22 13:38:14;;;;;;;3.65;1.30;;;20.50;48.40;;;;;;5025633;28;20181;-70
2021/05/22 13:40:58;;;;;;;4.32;1.23;;;20.60;48.70;;;;;;5026553;28;20548;-69
2021/05/22 13:43:42;;;;;;;3.80;1.40;;;20.60;48.90;;;;;;5026762;28;20091;-68
2021/05/22 13:46:26;;;;;;;3.83;1.27;;;20.60;49.20;;;;;;5021308;28;20055;-68
2021/05/22 13:49:11;;;;;;;3.35;1.35;;;20.60;48.70;;;;;;5036475;28;20075;-68
2021/05/22 13:51:55;;;;;;;8.73;1.95;;;20.60;47.80;;;;;;5022929;28;20045;-69
2021/05/22 13:54:39;;;;;;;3.03;1.40;;;20.60;47.90;;;;;;5015679;28;20308;-69
2021/05/22 13:57:23;;;;;;;1.67;1.10;;;20.50;47.60;;;;;;5022232;28;20040;-69
2021/05/22 14:00:08;;;;;;;4.23;1.40;;;20.40;47.80;;;;;;5024411;28;20319;-68
2021/05/22 14:02:52;;;;;;;4.15;1.30;;;20.30;47.90;;;;;;5021720;28;20387;-68
2021/05/22 14:05:37;;;;;;;5.80;1.63;;;20.20;48.10;;;;;;5028768;28;20389;-68
2021/05/22 14:08:21;;;;;;;4.35;1.70;;;20.00;49.70;;;;;;5019148;28;20095;-68
2021/05/22 14:11:06;;;;;;;4.03;1.60;;;19.80;52.60;;;;;;5023986;28;20115;-67
2021/05/22 14:13:50;;;;;;;3.50;1.10;;;19.70;54.40;;;;;;5022328;28;20457;-68
2021/05/22 14:16:35;;;;;;;2.87;0.90;;;19.50;55.80;;;;;;5019965;28;20547;-68
2021/05/22 14:19:19;;;;;;;2.60;1.33;;;19.50;55.90;;;;;;5024446;28;20047;-70
2021/05/22 14:22:04;;;;;;;5.57;1.50;;;19.40;56.50;;;;;;5019643;28;20175;-70